createdAt,value
2022-12-28T00:00:24.155Z,4.10
2022-12-28T00:02:58.723Z,4.20
2022-12-28T00:08:02.836Z,3.58
2022-12-28T00:11:08.430Z,3.65
2022-12-28T00:13:10.387Z,4.47
2022-12-28T00:15:42.869Z,3.45
2022-12-28T00:18:15.360Z,4.10
2022-12-28T00:20:58.617Z,3.90
2022-12-28T00:23:31.547Z,4.30
2022-12-28T00:26:12.642Z,5.12
2022-12-28T00:28:46.354Z,4.53
2022-12-28T00:31:19.260Z,5.00
2022-12-28T00:33:51.716Z,4.17
2022-12-28T00:36:24.124Z,3.77
2022-12-28T00:38:56.988Z,4.62
2022-12-28T00:41:30.014Z,4.60
2022-12-28T00:44:02.788Z,4.20
2022-12-28T00:46:35.352Z,5.25
2022-12-28T00:49:07.766Z,4.22
2022-12-28T00:51:40.491Z,4.50
2022-12-28T00:54:12.934Z,4.53
2022-12-28T00:56:46.566Z,5.25
2022-12-28T00:59:19.698Z,5.05
2022-12-28T01:01:52.375Z,5.35
2022-12-28T01:04:24.863Z,4.35
2022-12-28T01:06:57.574Z,4.75
2022-12-28T01:09:30.164Z,5.10
2022-12-28T01:12:03.174Z,5.47
2022-12-28T01:14:36.289Z,4.95
2022-12-28T01:17:09.040Z,4.55
2022-12-28T01:19:41.735Z,4.80
2022-12-28T01:22:14.708Z,5.67
2022-12-28T01:24:47.174Z,5.03
2022-12-28T01:27:19.801Z,5.05
2022-12-28T01:29:52.177Z,5.30
2022-12-28T01:32:24.574Z,5.78
2022-12-28T01:34:57.114Z,5.58
2022-12-28T01:37:29.591Z,4.72
2022-12-28T01:40:02.805Z,5.80
2022-12-28T01:42:40.124Z,4.87
2022-12-28T01:45:22.083Z,5.83
2022-12-28T01:47:55.224Z,5.87
2022-12-28T01:50:29.029Z,5.10
2022-12-28T01:55:36.502Z,6.00
2022-12-28T01:58:16.498Z,6.17
2022-12-28T02:00:49.268Z,5.28
2022-12-28T02:03:29.272Z,6.70
2022-12-28T02:06:05.270Z,6.03
2022-12-28T02:09:07.261Z,6.10
2022-12-28T02:11:40.065Z,5.50
2022-12-28T02:14:13.000Z,5.62
2022-12-28T02:16:45.635Z,6.30
2022-12-28T02:19:22.493Z,6.00
2022-12-28T02:22:40.694Z,5.65
2022-12-28T02:25:19.476Z,6.03
2022-12-28T02:28:26.140Z,5.47
2022-12-28T02:31:11.658Z,5.37
2022-12-28T02:33:53.710Z,6.25
2022-12-28T02:36:30.045Z,6.80
2022-12-28T02:39:10.711Z,5.87
2022-12-28T02:41:43.176Z,6.15
2022-12-28T02:44:17.187Z,6.40
2022-12-28T02:47:07.358Z,5.85
2022-12-28T02:49:58.408Z,6.47
2022-12-28T02:52:58.042Z,6.85
2022-12-28T02:56:10.246Z,6.47
2022-12-28T02:59:28.799Z,5.62
2022-12-28T03:02:41.239Z,7.25
2022-12-28T03:05:48.708Z,6.92
2022-12-28T03:08:30.713Z,7.30
2022-12-28T03:11:15.710Z,6.83
2022-12-28T03:14:08.999Z,6.53
2022-12-28T03:17:01.793Z,6.20
2022-12-28T03:20:00.350Z,6.20
2022-12-28T03:22:53.386Z,6.20
2022-12-28T03:25:45.113Z,6.20
2022-12-28T03:28:37.885Z,6.37
2022-12-28T03:31:14.916Z,6.28
2022-12-28T03:33:51.489Z,6.42
2022-12-28T03:36:53.357Z,6.45
2022-12-28T03:39:38.102Z,6.30
2022-12-28T03:42:46.297Z,6.30
2022-12-28T03:45:44.991Z,6.12
2022-12-28T03:48:02.779Z,6.20
2022-12-28T03:50:39.403Z,6.50
2022-12-28T03:53:11.932Z,7.33
2022-12-28T03:55:44.923Z,6.70
2022-12-28T03:58:19.087Z,7.28
2022-12-28T04:00:51.705Z,6.22
2022-12-28T04:03:24.535Z,7.28
2022-12-28T04:05:57.509Z,6.58
2022-12-28T04:08:31.639Z,6.67
2022-12-28T04:11:04.467Z,6.53
2022-12-28T04:13:37.542Z,6.42
2022-12-28T04:16:16.669Z,6.17
2022-12-28T04:18:49.500Z,6.30
2022-12-28T04:21:22.160Z,6.40
2022-12-28T04:23:56.275Z,5.78
2022-12-28T04:26:29.315Z,6.30
2022-12-28T04:29:02.636Z,6.17
2022-12-28T04:31:39.046Z,6.33
2022-12-28T04:36:47.399Z,7.05
2022-12-28T04:39:22.121Z,6.53
2022-12-28T04:41:54.778Z,5.78
2022-12-28T04:44:27.375Z,6.28
2022-12-28T04:46:59.981Z,6.70
2022-12-28T04:49:32.526Z,7.15
2022-12-28T04:52:05.708Z,6.35
2022-12-28T04:54:38.117Z,6.85
2022-12-28T04:57:10.644Z,6.37
2022-12-28T04:59:43.593Z,6.12
2022-12-28T05:02:16.983Z,6.10
2022-12-28T05:04:49.560Z,6.17
2022-12-28T05:07:22.696Z,6.28
2022-12-28T05:09:55.685Z,6.80
2022-12-28T05:12:28.723Z,6.60
2022-12-28T05:15:01.176Z,6.37
2022-12-28T05:17:34.269Z,6.08
2022-12-28T05:20:07.819Z,6.62
2022-12-28T05:22:41.166Z,7.00
2022-12-28T05:25:13.943Z,6.33
2022-12-28T05:27:46.457Z,6.85
2022-12-28T05:30:19.345Z,6.42
2022-12-28T05:32:52.221Z,6.20
2022-12-28T05:35:24.608Z,6.62
2022-12-28T05:37:56.990Z,5.85
2022-12-28T05:40:29.431Z,5.95
2022-12-28T05:43:02.071Z,6.30
2022-12-28T05:45:35.266Z,6.87
2022-12-28T05:48:07.712Z,6.62
2022-12-28T05:50:41.084Z,5.42
2022-12-28T05:53:13.608Z,6.40
2022-12-28T05:55:46.090Z,6.58
2022-12-28T05:58:18.696Z,6.33
2022-12-28T06:00:51.753Z,5.45
2022-12-28T06:03:24.377Z,5.85
2022-12-28T06:05:57.013Z,6.12
2022-12-28T06:08:30.400Z,6.28
2022-12-28T06:11:06.519Z,5.87
2022-12-28T06:13:38.934Z,5.25
2022-12-28T06:16:21.219Z,6.33
2022-12-28T06:18:53.797Z,5.67
2022-12-28T06:21:28.611Z,5.20
2022-12-28T06:24:02.542Z,5.65
2022-12-28T06:26:36.029Z,5.47
2022-12-28T06:29:08.552Z,6.10
2022-12-28T06:31:44.500Z,6.25
2022-12-28T06:34:17.065Z,5.10
2022-12-28T06:36:52.731Z,5.37
2022-12-28T06:39:25.202Z,5.65
2022-12-28T06:41:57.599Z,6.17
2022-12-28T06:44:29.969Z,5.25
2022-12-28T06:47:02.846Z,5.30
2022-12-28T06:49:35.372Z,5.15
2022-12-28T06:52:07.783Z,5.50
2022-12-28T06:54:40.448Z,4.50
2022-12-28T06:57:12.751Z,4.62
2022-12-28T06:59:45.329Z,4.60
2022-12-28T07:02:17.909Z,4.60
2022-12-28T07:04:52.032Z,5.05
2022-12-28T07:07:24.481Z,5.30
2022-12-28T07:09:57.972Z,4.55
2022-12-28T07:12:30.423Z,4.37
2022-12-28T07:15:03.081Z,5.55
2022-12-28T07:17:35.999Z,5.50
2022-12-28T07:20:10.004Z,5.75
2022-12-28T07:22:42.462Z,5.30
2022-12-28T07:25:15.285Z,5.33
2022-12-28T07:27:48.429Z,5.97
2022-12-28T07:30:20.888Z,8.58
2022-12-28T07:32:53.320Z,7.78
2022-12-28T07:35:25.734Z,5.67
2022-12-28T07:37:58.245Z,6.17
2022-12-28T07:40:30.942Z,5.83
2022-12-28T07:43:03.363Z,6.50
2022-12-28T07:45:35.882Z,5.87
2022-12-28T07:48:08.325Z,6.45
2022-12-28T07:50:40.779Z,5.83
2022-12-28T07:53:17.430Z,6.22
2022-12-28T07:56:01.713Z,6.60
2022-12-28T07:58:35.276Z,6.33
2022-12-28T08:01:10.933Z,6.00
2022-12-28T08:03:44.274Z,5.55
2022-12-28T08:06:20.090Z,5.90
2022-12-28T08:08:55.474Z,5.78
2022-12-28T08:11:31.155Z,5.65
2022-12-28T08:14:04.467Z,5.17
2022-12-28T08:16:40.270Z,5.50
2022-12-28T08:19:13.563Z,6.15
2022-12-28T08:21:46.689Z,18.00
2022-12-28T08:24:20.652Z,9.55
2022-12-28T08:26:53.122Z,6.97
2022-12-28T08:29:25.477Z,5.78
2022-12-28T08:31:58.734Z,5.75
2022-12-28T08:34:31.255Z,5.75
2022-12-28T08:37:03.699Z,5.95
2022-12-28T08:39:36.580Z,5.40
2022-12-28T08:42:09.071Z,5.65
2022-12-28T08:44:42.368Z,5.72
2022-12-28T08:47:14.805Z,4.90
2022-12-28T08:49:47.218Z,5.33
2022-12-28T08:52:19.766Z,4.72
2022-12-28T08:54:53.056Z,5.28
2022-12-28T08:57:25.755Z,5.65
2022-12-28T08:59:58.547Z,4.97
2022-12-28T09:02:31.656Z,4.58
2022-12-28T09:05:04.494Z,4.47
2022-12-28T09:07:37.057Z,3.90
2022-12-28T09:10:10.450Z,4.00
2022-12-28T09:12:43.095Z,4.47
2022-12-28T09:15:15.808Z,4.47
2022-12-28T09:17:48.687Z,3.77
2022-12-28T09:20:22.529Z,3.67
2022-12-28T09:22:55.984Z,4.00
2022-12-28T09:25:28.497Z,3.72
2022-12-28T09:28:01.059Z,3.85
2022-12-28T09:30:33.877Z,4.17
2022-12-28T09:33:24.410Z,3.80
2022-12-28T09:36:01.159Z,3.90
2022-12-28T09:38:33.978Z,3.95
2022-12-28T09:41:27.548Z,3.42
2022-12-28T09:44:28.934Z,3.72
2022-12-28T09:47:35.000Z,3.67
2022-12-28T09:50:22.585Z,3.77
2022-12-28T09:53:15.495Z,3.67
2022-12-28T09:55:55.549Z,4.30
2022-12-28T09:58:28.005Z,3.67
2022-12-28T10:01:02.176Z,3.52
2022-12-28T10:03:43.235Z,3.52
2022-12-28T10:06:28.193Z,3.42
2022-12-28T10:09:02.503Z,3.08
2022-12-28T10:11:43.186Z,3.50
2022-12-28T10:14:23.577Z,3.40
2022-12-28T10:16:56.512Z,3.60
2022-12-28T10:19:29.737Z,3.50
2022-12-28T10:22:09.822Z,3.00
2022-12-28T10:24:42.885Z,3.20
2022-12-28T10:27:28.511Z,3.60
2022-12-28T10:30:02.542Z,3.30
2022-12-28T10:33:02.106Z,2.70
2022-12-28T10:35:35.325Z,2.62
2022-12-28T10:38:24.815Z,2.83
2022-12-28T10:41:04.603Z,3.10
2022-12-28T10:43:40.343Z,2.47
2022-12-28T10:46:22.988Z,2.58
2022-12-28T10:48:57.962Z,2.22
2022-12-28T10:51:30.805Z,2.33
2022-12-28T10:54:03.411Z,2.20
2022-12-28T10:56:37.549Z,2.50
2022-12-28T10:59:27.955Z,2.77
2022-12-28T11:02:31.016Z,2.98
2022-12-28T11:05:05.457Z,2.55
2022-12-28T11:07:42.390Z,2.60
2022-12-28T11:10:28.437Z,3.90
2022-12-28T11:13:02.337Z,3.42
2022-12-28T11:15:35.423Z,3.30
2022-12-28T11:18:16.628Z,3.20
2022-12-28T11:20:50.991Z,2.45
2022-12-28T11:23:26.392Z,4.03
2022-12-28T11:26:00.515Z,3.02
2022-12-28T11:28:34.781Z,3.27
2022-12-28T11:31:10.498Z,3.70
2022-12-28T11:33:45.520Z,2.65
2022-12-28T11:36:20.990Z,3.75
2022-12-28T11:38:55.381Z,3.35
2022-12-28T11:41:46.978Z,3.58
2022-12-28T11:44:37.539Z,3.92
2022-12-28T11:47:17.957Z,3.37
2022-12-28T11:49:50.397Z,4.05
2022-12-28T11:52:34.258Z,3.60
2022-12-28T11:55:39.085Z,4.30
2022-12-28T11:58:31.528Z,3.95
2022-12-28T12:01:04.802Z,3.80
2022-12-28T12:04:02.257Z,4.50
2022-12-28T12:06:49.198Z,3.33
2022-12-28T12:09:37.257Z,3.70
2022-12-28T12:12:24.810Z,3.70
2022-12-28T12:15:12.959Z,3.98
2022-12-28T12:18:07.779Z,3.92
2022-12-28T12:21:15.416Z,3.40
2022-12-28T12:23:56.879Z,3.50
2022-12-28T12:26:41.070Z,3.33
2022-12-28T12:29:37.230Z,3.47
2022-12-28T12:32:34.077Z,3.35
2022-12-28T12:35:07.958Z,3.33
2022-12-28T12:37:56.746Z,3.35
2022-12-28T12:40:58.323Z,3.45
2022-12-28T12:43:40.701Z,4.33
2022-12-28T12:46:23.513Z,3.67
2022-12-28T12:49:29.948Z,3.60
2022-12-28T12:52:23.006Z,7.05
2022-12-28T12:55:24.316Z,3.62
2022-12-28T12:58:05.287Z,3.70
2022-12-28T13:00:48.624Z,4.30
2022-12-28T13:03:50.102Z,4.90
2022-12-28T13:06:26.368Z,4.75
2022-12-28T13:09:05.771Z,4.20
2022-12-28T13:11:38.588Z,4.40
2022-12-28T13:14:24.864Z,4.60
2022-12-28T13:16:59.774Z,4.35
2022-12-28T16:43:16.939Z,14.80
2022-12-28T16:45:49.853Z,14.28
2022-12-28T16:48:22.402Z,15.85
2022-12-28T16:51:01.103Z,15.23
2022-12-28T16:53:34.261Z,15.55
2022-12-28T16:56:07.747Z,14.65
2022-12-28T16:58:41.702Z,14.20
2022-12-28T17:01:14.862Z,14.63
2022-12-28T17:03:49.090Z,14.15
2022-12-28T17:06:22.144Z,15.75
2022-12-28T17:08:55.439Z,14.93
2022-12-28T17:11:27.961Z,14.70
2022-12-28T17:14:05.536Z,13.68
2022-12-28T17:16:38.267Z,14.98
2022-12-28T17:19:10.734Z,15.03
2022-12-28T17:21:43.169Z,15.58
2022-12-28T17:24:15.846Z,15.35
2022-12-28T17:26:48.161Z,15.38
2022-12-28T17:29:20.713Z,14.03
2022-12-28T17:31:53.223Z,14.50
2022-12-28T17:34:25.702Z,13.83
2022-12-28T17:36:58.084Z,14.30
2022-12-28T17:39:35.985Z,14.63
2022-12-28T17:42:05.176Z,16.30
2022-12-28T17:44:37.953Z,15.03
2022-12-28T17:47:10.550Z,14.55
2022-12-28T17:49:43.107Z,12.80
2022-12-28T17:52:17.257Z,13.68
2022-12-28T17:54:50.292Z,13.25
2022-12-28T17:57:22.931Z,13.18
2022-12-28T17:59:55.544Z,12.63
2022-12-28T18:02:29.500Z,12.43
2022-12-28T18:05:02.155Z,12.78
2022-12-28T18:07:35.613Z,13.10
2022-12-28T18:10:09.453Z,12.85
2022-12-28T18:12:42.400Z,13.53
2022-12-28T18:15:15.240Z,12.35
2022-12-28T18:17:48.059Z,12.80
2022-12-28T18:20:20.514Z,11.68
2022-12-28T18:22:53.108Z,11.38
2022-12-28T18:25:25.617Z,12.58
2022-12-28T18:27:59.619Z,12.75
2022-12-28T18:30:32.894Z,12.28
2022-12-28T18:33:05.567Z,12.15
2022-12-28T18:35:38.195Z,11.80
2022-12-28T18:38:10.661Z,12.23
2022-12-28T18:40:43.137Z,11.65
2022-12-28T18:43:15.670Z,11.50
2022-12-28T18:45:55.058Z,10.90
2022-12-28T18:48:28.197Z,11.48
2022-12-28T18:51:09.569Z,11.03
2022-12-28T18:53:42.342Z,11.40
2022-12-28T18:56:20.174Z,11.18
2022-12-28T18:58:56.490Z,11.48
2022-12-28T19:04:03.980Z,12.13
2022-12-28T19:06:37.335Z,12.10
2022-12-28T19:09:10.172Z,11.93
2022-12-28T19:11:42.771Z,11.03
2022-12-28T19:14:17.653Z,12.68
2022-12-28T19:16:50.208Z,12.78
2022-12-28T19:19:23.121Z,11.63
2022-12-28T19:21:59.027Z,11.93
2022-12-28T19:24:31.469Z,10.58
2022-12-28T19:27:03.900Z,11.25
2022-12-28T19:29:36.497Z,11.80
2022-12-28T19:32:09.053Z,12.15
2022-12-28T19:34:41.438Z,11.35
2022-12-28T19:37:13.757Z,10.88
2022-12-28T19:39:46.257Z,11.15
2022-12-28T19:42:18.958Z,12.10
2022-12-28T19:44:51.311Z,10.40
2022-12-28T19:47:24.066Z,10.60
2022-12-28T19:49:56.431Z,11.65
2022-12-28T19:52:28.803Z,11.10
2022-12-28T19:55:01.098Z,11.83
2022-12-28T19:57:35.297Z,11.48
2022-12-28T20:00:09.436Z,11.38
2022-12-28T20:02:42.162Z,12.03
2022-12-28T20:05:16.106Z,12.35
2022-12-28T20:07:48.877Z,11.90
2022-12-28T20:10:21.262Z,11.90
2022-12-28T20:12:53.685Z,12.03
2022-12-28T20:15:25.998Z,12.90
2022-12-28T20:17:58.556Z,12.93
2022-12-28T20:20:45.885Z,11.88
2022-12-28T20:23:05.385Z,12.88
2022-12-28T20:25:37.987Z,11.73
2022-12-28T20:28:10.781Z,12.30
2022-12-28T20:30:43.235Z,11.48
2022-12-28T20:33:19.977Z,11.28
2022-12-28T20:35:59.814Z,12.65
2022-12-28T20:38:32.818Z,12.37
2022-12-28T20:41:09.630Z,10.80
2022-12-28T20:43:42.281Z,11.18
2022-12-28T20:46:14.882Z,10.65
2022-12-28T20:48:47.340Z,12.10
2022-12-28T20:51:19.826Z,12.30
2022-12-28T20:53:52.178Z,11.33
2022-12-28T20:56:25.084Z,12.07
2022-12-28T20:58:58.052Z,12.73
2022-12-28T21:01:30.734Z,12.00
2022-12-28T21:04:03.309Z,11.90
2022-12-28T21:06:35.772Z,11.57
2022-12-28T21:09:08.187Z,13.10
2022-12-28T21:11:41.221Z,13.30
2022-12-28T21:14:14.558Z,12.55
2022-12-28T21:16:46.994Z,12.13
2022-12-28T21:19:20.027Z,11.88
2022-12-28T21:21:52.502Z,12.50
2022-12-28T21:24:24.827Z,12.55
2022-12-28T21:26:57.110Z,12.58
2022-12-28T21:29:31.166Z,12.23
2022-12-28T21:32:03.648Z,13.20
2022-12-28T21:34:37.217Z,12.90
2022-12-28T21:37:27.265Z,13.10
2022-12-28T21:39:59.681Z,12.58
2022-12-28T21:42:32.388Z,13.62
2022-12-28T21:45:05.465Z,13.22
2022-12-28T21:47:38.649Z,11.70
2022-12-28T21:50:11.187Z,12.30
2022-12-28T21:52:43.861Z,12.25
2022-12-28T21:55:33.835Z,12.70
2022-12-28T21:58:06.504Z,12.20
2022-12-28T22:00:56.475Z,11.40
2022-12-28T22:03:46.658Z,11.30
2022-12-28T22:06:18.985Z,11.55
2022-12-28T22:09:09.149Z,11.33
2022-12-28T22:11:59.697Z,12.18
2022-12-28T22:14:32.412Z,11.18
2022-12-28T22:17:07.366Z,12.50
2022-12-28T22:19:39.292Z,12.73
2022-12-28T22:22:11.640Z,12.98
2022-12-28T22:24:44.862Z,11.73
2022-12-28T22:27:17.253Z,12.18
2022-12-28T22:29:49.705Z,12.60
2022-12-28T22:32:22.062Z,12.15
2022-12-28T22:34:54.587Z,11.90
2022-12-28T22:37:27.124Z,12.03
2022-12-28T22:39:59.693Z,10.80
2022-12-28T22:42:32.660Z,12.40
2022-12-28T22:45:05.321Z,10.95
2022-12-28T22:47:38.589Z,11.15
2022-12-28T22:50:13.039Z,11.57
2022-12-28T22:52:46.080Z,11.83
2022-12-28T22:55:18.687Z,11.68
2022-12-28T22:57:51.055Z,10.32
2022-12-28T23:00:23.647Z,11.35
2022-12-28T23:02:57.279Z,12.80
2022-12-28T23:05:30.733Z,12.40
2022-12-28T23:08:03.307Z,11.63
2022-12-28T23:10:35.982Z,11.78
2022-12-28T23:13:08.358Z,11.75
2022-12-28T23:15:42.332Z,11.33
2022-12-28T23:18:32.482Z,11.78
2022-12-28T23:21:22.433Z,11.20
2022-12-28T23:24:12.295Z,11.63
2022-12-28T23:27:02.459Z,11.15
2022-12-28T23:29:34.933Z,11.45
2022-12-28T23:32:07.337Z,10.03
2022-12-28T23:34:40.162Z,10.98
2022-12-28T23:37:12.689Z,9.73
2022-12-28T23:39:45.216Z,9.25
2022-12-28T23:42:17.662Z,10.00
2022-12-28T23:44:50.049Z,8.68
2022-12-28T23:47:23.114Z,10.30
2022-12-28T23:49:56.577Z,9.25
2022-12-28T23:52:29.125Z,9.00
2022-12-28T23:55:01.462Z,9.20
2022-12-28T23:57:34.532Z,10.03
